Gas Grouper — V7TZ2 — position and weather

sailwx.info

Track history (hours):
 
Tides and Currents Weather Stations Pressure Air Temp Water Temp Dewpoint Dewpoint Depression Visibility Wind Speed Wind Dir Waves Ship Positions

Gas Grouper

Last reported at 2014-Sep-16 22:10 UTC. Time now 2014-Sep-17 01:29 UTC.
Position N 35°58' W 005°33'.

Length 174 m; draft 10.3 m.

Type: Tanker. MMSI: 538003910.

Date/timePositionNaut miles runAvg speedWind from/ knotsBaromVisibWave heightAir tempDewpointWater temp
2014-Sep-16 22:10N 35°58' W 005°33'813.3
2014-Sep-16 21:33N 36°01' W 005°24'21612.6
2014-Sep-16 04:25N 36°36' W 000°59'1314.6
2014-Sep-16 03:33N 36°38' W 000°44'1514.5
2014-Sep-16 02:33N 36°41' W 000°26'1514.2
2014-Sep-16 01:31N 36°43' W 000°08'1314.0
2014-Sep-16 00:33N 36°46' E 000°09'4113.5
2014-Sep-15 21:33N 36°53' E 000°59'1414.3
2014-Sep-15 20:33N 36°55' E 001°16'1515.1
2014-Sep-15 19:32N 36°58' E 001°35'1515.3
2014-Sep-15 18:33N 37°00' E 001°54'1715.1
2014-Sep-15 17:27N 37°03' E 002°14'1515.2
2014-Sep-15 16:27N 37°06' E 002°33'1415.3
2014-Sep-15 15:32N 37°08' E 002°50'35615.3
2014-Sep-14 16:19N 37°39' E 010°16'1115.1
2014-Sep-14 15:34N 37°36' E 010°31'1715.3
2014-Sep-14 14:26N 37°33' E 010°52'1314.9
2014-Sep-14 13:34N 37°29' E 011°08'4715.5
2014-Sep-14 10:30N 37°07' E 012°00'6115.4
2014-Sep-14 06:34N 36°40' E 013°08'1515.0
2014-Sep-14 05:33N 36°36' E 013°26'1414.4
2014-Sep-14 04:33N 36°32' E 013°43'1414.0
2014-Sep-14 03:33N 36°28' E 014°00'1414.1
2014-Sep-14 02:33N 36°24' E 014°17'1715.0
2014-Sep-14 01:25N 36°19' E 014°37'41315.3
2014-Sep-12 22:32N 36°02' E 023°08'1715.9
2014-Sep-12 21:28N 36°14' E 023°23'1415.9
2014-Sep-12 20:33N 36°24' E 023°35'1615.8
2014-Sep-12 19:33N 36°36' E 023°48'1615.7
2014-Sep-12 18:34N 36°48' E 024°01'2216.1
2014-Sep-12 17:12N 37°09' E 024°09'1015.9
2014-Sep-12 16:33N 37°18' E 024°13'1615.9
2014-Sep-12 15:33N 37°32' E 024°23'1515.5
2014-Sep-12 14:34N 37°46' E 024°32'7615.2
2014-Sep-12 09:34N 38°55' E 025°12'1414.2
2014-Sep-12 08:33N 39°08' E 025°20'1414.2
2014-Sep-12 07:34N 39°20' E 025°28'1414.2
2014-Sep-12 06:33N 39°33' E 025°37'3014.5
2014-Sep-12 04:28N 39°59' E 025°57'149 9.4
2014-Sep-11 12:31N 40°58' E 028°58'308 7.7
2014-Sep-09 20:33N 45°52' E 031°03'1313.2
2014-Sep-09 19:33N 46°05' E 031°08'1414.0
2014-Sep-09 18:32N 46°15' E 030°54'16 0.4
2014-Sep-07 21:22N 46°31' E 030°58'  
Track history (hours):
 
Tides and Currents Weather Stations Pressure Air Temp Water Temp Dewpoint Dewpoint Depression Visibility Wind Speed Wind Dir Waves Ship Positions

Gas Grouper

Last reported at 2014-Sep-16 22:10 UTC. Time now 2014-Sep-17 01:29 UTC.
Position N 35°58' W 005°33'.

Length 174 m; draft 10.3 m.

Type: Tanker. MMSI: 538003910.

Date/timePositionNaut miles runAvg speedWind from/ knotsBaromVisibWave heightAir tempDewpointWater temp
2014-Sep-16 22:10N 35°58' W 005°33'813.3
2014-Sep-16 21:33N 36°01' W 005°24'21612.6
2014-Sep-16 04:25N 36°36' W 000°59'1314.6
2014-Sep-16 03:33N 36°38' W 000°44'1514.5
2014-Sep-16 02:33N 36°41' W 000°26'1514.2
2014-Sep-16 01:31N 36°43' W 000°08'1314.0
2014-Sep-16 00:33N 36°46' E 000°09'4113.5
2014-Sep-15 21:33N 36°53' E 000°59'1414.3
2014-Sep-15 20:33N 36°55' E 001°16'1515.1
2014-Sep-15 19:32N 36°58' E 001°35'1515.3
2014-Sep-15 18:33N 37°00' E 001°54'1715.1
2014-Sep-15 17:27N 37°03' E 002°14'1515.2
2014-Sep-15 16:27N 37°06' E 002°33'1415.3
2014-Sep-15 15:32N 37°08' E 002°50'35615.3
2014-Sep-14 16:19N 37°39' E 010°16'1115.1
2014-Sep-14 15:34N 37°36' E 010°31'1715.3
2014-Sep-14 14:26N 37°33' E 010°52'1314.9
2014-Sep-14 13:34N 37°29' E 011°08'4715.5
2014-Sep-14 10:30N 37°07' E 012°00'6115.4
2014-Sep-14 06:34N 36°40' E 013°08'1515.0
2014-Sep-14 05:33N 36°36' E 013°26'1414.4
2014-Sep-14 04:33N 36°32' E 013°43'1414.0
2014-Sep-14 03:33N 36°28' E 014°00'1414.1
2014-Sep-14 02:33N 36°24' E 014°17'1715.0
2014-Sep-14 01:25N 36°19' E 014°37'41315.3
2014-Sep-12 22:32N 36°02' E 023°08'1715.9
2014-Sep-12 21:28N 36°14' E 023°23'1415.9
2014-Sep-12 20:33N 36°24' E 023°35'1615.8
2014-Sep-12 19:33N 36°36' E 023°48'1615.7
2014-Sep-12 18:34N 36°48' E 024°01'2216.1
2014-Sep-12 17:12N 37°09' E 024°09'1015.9
2014-Sep-12 16:33N 37°18' E 024°13'1615.9
2014-Sep-12 15:33N 37°32' E 024°23'1515.5
2014-Sep-12 14:34N 37°46' E 024°32'7615.2
2014-Sep-12 09:34N 38°55' E 025°12'1414.2
2014-Sep-12 08:33N 39°08' E 025°20'1414.2
2014-Sep-12 07:34N 39°20' E 025°28'1414.2
2014-Sep-12 06:33N 39°33' E 025°37'3014.5
2014-Sep-12 04:28N 39°59' E 025°57'149 9.4
2014-Sep-11 12:31N 40°58' E 028°58'308 7.7
2014-Sep-09 20:33N 45°52' E 031°03'1313.2
2014-Sep-09 19:33N 46°05' E 031°08'1414.0
2014-Sep-09 18:32N 46°15' E 030°54'16 0.4
2014-Sep-07 21:22N 46°31' E 030°58'  

Dump ship's entire track history